createdAt,value
2022-09-07T00:03:02.891Z,7.30
2022-09-07T00:06:08.308Z,6.75
2022-09-07T00:09:10.818Z,7.30
2022-09-07T00:12:13.654Z,6.78
2022-09-07T00:15:16.667Z,7.35
2022-09-07T00:18:19.684Z,7.03
2022-09-07T00:21:22.418Z,7.57
2022-09-07T00:24:25.405Z,6.97
2022-09-07T00:27:28.004Z,7.20
2022-09-07T00:30:30.886Z,6.95
2022-09-07T00:33:33.400Z,7.03
2022-09-07T00:36:36.235Z,7.18
2022-09-07T00:39:38.898Z,7.30
2022-09-07T00:42:41.767Z,6.85
2022-09-07T00:45:44.240Z,7.87
2022-09-07T00:48:53.373Z,7.30
2022-09-07T00:51:59.412Z,7.25
2022-09-07T00:55:06.741Z,7.60
2022-09-07T00:58:09.557Z,7.37
2022-09-07T01:01:12.895Z,7.30
2022-09-07T01:04:15.713Z,7.15
2022-09-07T01:07:19.147Z,7.93
2022-09-07T01:10:28.104Z,7.70
2022-09-07T01:13:31.247Z,8.00
2022-09-07T01:16:46.018Z,7.75
2022-09-07T01:20:00.598Z,7.72
2022-09-07T01:23:33.637Z,7.85
2022-09-07T01:26:39.374Z,8.33
2022-09-07T01:29:47.720Z,8.40
2022-09-07T01:33:32.023Z,8.43
2022-09-07T01:37:18.084Z,7.80
2022-09-07T01:40:41.211Z,8.02
2022-09-07T01:43:58.842Z,7.60
2022-09-07T01:47:07.003Z,8.10
2022-09-07T01:50:17.657Z,8.10
2022-09-07T01:53:28.298Z,8.40
2022-09-07T01:56:37.562Z,8.30
2022-09-07T01:59:51.928Z,9.10
2022-09-07T02:03:14.391Z,8.52
2022-09-07T02:06:25.420Z,8.98
2022-09-07T02:09:38.507Z,8.88
2022-09-07T02:12:47.517Z,9.02
2022-09-07T02:16:01.561Z,8.87
2022-09-07T02:19:14.239Z,9.73
2022-09-07T02:22:21.356Z,9.90
2022-09-07T02:25:26.975Z,9.45
2022-09-07T02:28:34.509Z,9.77
2022-09-07T02:31:37.316Z,9.00
2022-09-07T02:34:39.893Z,9.30
2022-09-07T02:37:43.962Z,8.60
2022-09-07T02:40:54.673Z,9.27
2022-09-07T02:43:57.987Z,10.00
2022-09-07T02:47:15.635Z,9.23
2022-09-07T02:50:32.939Z,9.18
2022-09-07T02:53:41.285Z,9.93
2022-09-07T02:56:51.979Z,8.88
2022-09-07T03:00:34.524Z,8.73
2022-09-07T03:03:58.275Z,8.60
2022-09-07T03:07:17.770Z,8.57
2022-09-07T03:10:20.861Z,10.68
2022-09-07T03:13:28.499Z,8.57
2022-09-07T03:16:31.300Z,8.90
2022-09-07T03:19:33.794Z,8.83
2022-09-07T03:22:36.619Z,8.98
2022-09-07T03:25:39.165Z,9.00
2022-09-07T03:28:42.274Z,9.13
2022-09-07T03:31:44.935Z,7.97
2022-09-07T03:34:48.612Z,9.20
2022-09-07T03:37:51.215Z,8.23
2022-09-07T03:41:02.390Z,8.68
2022-09-07T03:44:06.016Z,8.38
2022-09-07T03:47:08.820Z,8.98
2022-09-07T03:50:11.404Z,9.20
2022-09-07T03:53:14.195Z,8.48
2022-09-07T03:56:19.474Z,8.82
2022-09-07T03:59:22.235Z,8.93
2022-09-07T04:02:24.839Z,6.15
2022-09-07T04:05:27.687Z,8.23
2022-09-07T04:08:32.575Z,8.75
2022-09-07T04:11:35.858Z,8.57
2022-09-07T04:14:38.326Z,8.70
2022-09-07T04:17:41.121Z,8.82
2022-09-07T04:20:44.269Z,8.33
2022-09-07T04:23:47.457Z,8.65
2022-09-07T04:26:50.010Z,8.88
2022-09-07T04:29:52.802Z,7.78
2022-09-07T04:32:55.349Z,8.23
2022-09-07T04:36:00.924Z,7.77
2022-09-07T04:39:04.893Z,8.57
2022-09-07T04:42:07.745Z,8.60
2022-09-07T04:45:10.609Z,8.25
2022-09-07T04:48:13.402Z,10.00
2022-09-07T04:51:16.338Z,8.47
2022-09-07T04:54:20.108Z,8.05
2022-09-07T04:57:25.905Z,8.60
2022-09-07T05:00:29.013Z,7.93
2022-09-07T05:03:33.058Z,8.40
2022-09-07T05:06:35.903Z,7.63
2022-09-07T05:09:38.514Z,8.13
2022-09-07T05:12:41.287Z,8.50
2022-09-07T05:15:43.935Z,8.45
2022-09-07T05:18:55.439Z,9.13
2022-09-07T05:21:58.540Z,7.27
2022-09-07T05:25:01.310Z,7.03
2022-09-07T05:28:04.261Z,8.57
2022-09-07T05:31:19.451Z,7.72
2022-09-07T05:34:30.940Z,7.00
2022-09-07T05:37:34.281Z,7.97
2022-09-07T05:40:40.539Z,7.43
2022-09-07T05:47:07.139Z,7.15
2022-09-07T05:50:10.757Z,7.10
2022-09-07T05:53:13.307Z,7.53
2022-09-07T05:56:16.396Z,7.05
2022-09-07T05:59:18.924Z,7.93
2022-09-07T06:02:21.882Z,7.43
2022-09-07T06:05:24.893Z,6.78
2022-09-07T06:08:27.498Z,5.70
2022-09-07T06:11:30.383Z,7.78
2022-09-07T06:14:35.696Z,7.40
2022-09-07T06:17:38.619Z,6.97
2022-09-07T06:20:41.122Z,7.05
2022-09-07T06:23:44.676Z,7.07
2022-09-07T06:26:47.253Z,6.62
2022-09-07T06:29:50.044Z,7.57
2022-09-07T06:32:52.903Z,6.93
2022-09-07T06:36:00.513Z,7.30
2022-09-07T06:39:03.100Z,7.37
2022-09-07T06:42:06.501Z,7.72
2022-09-07T06:45:17.024Z,7.40
2022-09-07T06:48:19.909Z,7.22
2022-09-07T06:51:26.764Z,7.55
2022-09-07T06:57:53.423Z,7.97
2022-09-07T07:00:56.671Z,8.27
2022-09-07T07:04:00.014Z,7.50
2022-09-07T07:07:02.784Z,7.05
2022-09-07T07:10:05.873Z,7.63
2022-09-07T07:13:08.887Z,7.32
2022-09-07T07:16:13.351Z,7.32
2022-09-07T07:19:16.636Z,7.53
2022-09-07T07:22:43.074Z,7.85
2022-09-07T07:25:42.315Z,7.23
2022-09-07T07:29:03.070Z,7.32
2022-09-07T07:32:06.776Z,7.60
2022-09-07T07:35:10.180Z,6.95
2022-09-07T07:48:21.682Z,6.62
2022-09-07T07:51:24.934Z,6.80
2022-09-07T07:54:27.379Z,6.37
2022-09-07T07:57:30.467Z,5.83
2022-09-07T08:00:53.046Z,5.85
2022-09-07T08:03:55.860Z,6.28
2022-09-07T08:06:58.332Z,6.30
2022-09-07T08:10:01.180Z,5.87
2022-09-07T08:13:03.981Z,6.20
2022-09-07T08:16:08.074Z,5.85
2022-09-07T08:19:10.593Z,6.53
2022-09-07T08:22:13.392Z,6.62
2022-09-07T08:25:15.920Z,6.53
2022-09-07T08:28:19.756Z,5.43
2022-09-07T08:31:23.210Z,6.30
2022-09-07T08:34:27.187Z,6.57
2022-09-07T08:37:29.970Z,5.90
2022-09-07T08:40:36.514Z,5.85
2022-09-07T08:43:50.089Z,6.90
2022-09-07T08:46:56.748Z,6.20
2022-09-07T08:50:12.022Z,5.68
2022-09-07T08:53:17.032Z,5.60
2022-09-07T08:56:26.084Z,5.53
2022-09-07T08:59:40.132Z,5.50
2022-09-07T09:02:45.530Z,5.07
2022-09-07T09:06:01.704Z,5.43
2022-09-07T09:09:19.384Z,5.55
2022-09-07T09:12:29.183Z,5.32
2022-09-07T09:15:58.919Z,5.00
2022-09-07T09:19:47.342Z,4.93
2022-09-07T09:22:52.253Z,5.25
2022-09-07T09:26:00.149Z,5.78
2022-09-07T09:29:20.929Z,5.20
2022-09-07T09:32:45.474Z,4.83
2022-09-07T09:35:50.970Z,5.15
2022-09-07T09:38:53.828Z,5.37
2022-09-07T09:41:59.091Z,4.82
2022-09-07T09:45:22.044Z,4.80
2022-09-07T09:48:32.862Z,5.43
2022-09-07T09:55:36.392Z,5.82
2022-09-07T10:05:39.663Z,4.60
2022-09-07T10:08:54.878Z,4.40
2022-09-07T10:12:07.254Z,4.50
2022-09-07T10:15:41.324Z,3.70
2022-09-07T10:18:58.761Z,4.55
2022-09-07T10:22:04.789Z,4.03
2022-09-07T10:25:32.540Z,4.32
2022-09-07T10:32:12.749Z,4.37
2022-09-07T10:35:20.683Z,4.00
2022-09-07T10:38:25.089Z,3.93
2022-09-07T10:41:37.323Z,4.22
2022-09-07T10:44:55.749Z,3.87
2022-09-07T10:48:32.464Z,4.28
2022-09-07T10:51:51.166Z,4.10
2022-09-07T10:54:56.501Z,4.03
2022-09-07T11:02:10.270Z,4.20
2022-09-07T11:05:38.517Z,4.00
2022-09-07T11:12:24.909Z,3.93
2022-09-07T11:15:40.313Z,4.28
2022-09-07T11:22:47.232Z,3.83
2022-09-07T11:26:08.871Z,4.40
2022-09-07T11:29:34.940Z,4.17
2022-09-07T11:32:38.748Z,4.15
2022-09-07T11:35:53.829Z,4.12
2022-09-07T11:39:07.782Z,4.20
2022-09-07T11:42:48.803Z,4.25
2022-09-07T11:45:55.386Z,4.53
2022-09-07T11:48:58.946Z,3.83
2022-09-07T11:52:06.160Z,3.90
2022-09-07T11:55:12.763Z,4.37
2022-09-07T11:58:37.979Z,4.05
2022-09-07T12:02:04.052Z,4.23
2022-09-07T12:05:38.423Z,3.75
2022-09-07T12:08:56.018Z,4.30
2022-09-07T12:12:42.188Z,4.07
2022-09-07T12:15:57.881Z,4.28
2022-09-07T12:19:12.919Z,4.30
2022-09-07T12:22:22.526Z,4.12
2022-09-07T12:25:25.903Z,4.10
2022-09-07T12:28:34.261Z,3.95
2022-09-07T12:31:59.166Z,4.18
2022-09-07T12:35:02.385Z,4.37
2022-09-07T12:38:30.815Z,4.47
2022-09-07T12:41:47.432Z,4.45
2022-09-07T12:45:35.819Z,4.15
2022-09-07T12:48:48.745Z,5.30
2022-09-07T12:52:15.121Z,4.10
2022-09-07T12:56:15.138Z,5.37
2022-09-07T12:59:30.871Z,4.93
2022-09-07T13:02:58.632Z,4.93
2022-09-07T13:10:00.354Z,4.17
2022-09-07T13:13:16.790Z,5.40
2022-09-07T13:16:30.714Z,4.03
2022-09-07T13:19:57.033Z,4.40
2022-09-07T13:23:23.817Z,4.28
2022-09-07T13:26:58.548Z,4.10
2022-09-07T13:30:07.280Z,4.35
2022-09-07T13:33:26.012Z,3.83
2022-09-07T13:36:45.684Z,4.22
2022-09-07T13:39:49.724Z,3.97
2022-09-07T13:42:52.717Z,4.27
2022-09-07T13:45:55.565Z,4.32
2022-09-07T13:49:06.958Z,4.65
2022-09-07T13:52:15.682Z,3.97
2022-09-07T13:55:46.588Z,4.25
2022-09-07T13:58:52.125Z,3.97
2022-09-07T14:01:55.812Z,4.10
2022-09-07T14:05:00.579Z,3.70
2022-09-07T14:08:03.426Z,3.78
2022-09-07T14:11:20.782Z,3.40
2022-09-07T14:14:29.567Z,3.47
2022-09-07T14:17:32.338Z,3.60
2022-09-07T14:20:40.552Z,3.60
2022-09-07T14:23:43.240Z,3.22
2022-09-07T14:26:48.257Z,3.47
2022-09-07T14:29:51.173Z,2.93
2022-09-07T14:33:00.763Z,3.20
2022-09-07T14:36:23.343Z,3.05
2022-09-07T14:39:29.821Z,3.20
2022-09-07T14:42:32.670Z,3.23
2022-09-07T14:45:36.221Z,3.13
2022-09-07T14:48:40.556Z,2.85
2022-09-07T14:51:44.647Z,3.42
2022-09-07T14:54:51.483Z,3.15
2022-09-07T14:58:15.902Z,3.50
2022-09-07T15:01:38.151Z,3.07
2022-09-07T15:04:40.871Z,3.37
2022-09-07T15:07:47.961Z,3.60
2022-09-07T15:14:25.288Z,3.90
2022-09-07T15:17:48.172Z,4.00
2022-09-07T15:20:51.243Z,4.53
2022-09-07T15:23:57.109Z,4.50
2022-09-07T15:27:03.509Z,4.50
2022-09-07T15:30:06.847Z,4.65
2022-09-07T15:33:11.475Z,4.20
2022-09-07T15:36:15.842Z,4.70
2022-09-07T15:39:21.265Z,4.87
2022-09-07T15:45:48.117Z,5.03
2022-09-07T15:48:53.678Z,5.10
2022-09-07T15:52:05.098Z,4.93
2022-09-07T15:55:08.846Z,4.95
2022-09-07T15:58:12.552Z,5.50
2022-09-07T16:04:38.788Z,4.80
2022-09-07T16:11:18.537Z,4.90
2022-09-07T16:14:21.466Z,5.03
2022-09-07T16:17:33.991Z,5.12
2022-09-07T16:20:38.863Z,5.13
2022-09-07T16:23:43.964Z,5.15
2022-09-07T16:26:46.412Z,4.97
2022-09-07T16:29:49.262Z,5.35
2022-09-07T16:32:51.830Z,5.07
2022-09-07T16:36:02.926Z,5.03
2022-09-07T16:39:05.395Z,5.53
2022-09-07T16:42:08.948Z,5.57
2022-09-07T16:48:35.790Z,5.33
2022-09-07T16:51:39.696Z,5.50
2022-09-07T16:54:42.856Z,4.80
2022-09-07T17:01:10.281Z,5.85
2022-09-07T17:04:13.208Z,5.63
2022-09-07T17:07:15.905Z,5.93
2022-09-07T17:10:18.392Z,5.80
2022-09-07T17:13:21.109Z,5.80
2022-09-07T17:16:26.445Z,5.10
2022-09-07T17:19:29.770Z,6.03
2022-09-07T17:22:32.636Z,6.00
2022-09-07T17:25:35.385Z,6.00
2022-09-07T17:28:38.664Z,6.55
2022-09-07T17:35:04.539Z,6.97
2022-09-07T17:41:33.887Z,6.40
2022-09-07T17:44:38.422Z,6.40
2022-09-07T17:47:41.040Z,6.62
2022-09-07T17:50:43.764Z,6.60
2022-09-07T17:53:46.332Z,6.43
2022-09-07T17:56:49.109Z,7.03
2022-09-07T18:03:14.375Z,6.72
2022-09-07T18:06:16.804Z,6.70
2022-09-07T18:09:19.972Z,7.00
2022-09-07T18:12:22.760Z,6.55
2022-09-07T18:15:25.534Z,7.20
2022-09-07T18:18:28.473Z,7.60
2022-09-07T18:21:33.420Z,6.87
2022-09-07T18:24:36.951Z,6.57
2022-09-07T18:27:40.446Z,7.35
2022-09-07T18:30:43.097Z,6.85
2022-09-07T18:33:47.458Z,6.97
2022-09-07T18:36:50.304Z,7.17
2022-09-07T18:39:54.363Z,7.43
2022-09-07T18:42:57.541Z,7.12
2022-09-07T18:46:08.507Z,7.90
2022-09-07T18:49:11.129Z,7.10
2022-09-07T18:55:36.267Z,7.87
2022-09-07T18:58:39.254Z,7.30
2022-09-07T19:01:41.889Z,7.05
2022-09-07T19:08:08.589Z,7.70
2022-09-07T19:11:13.495Z,7.57
2022-09-07T19:14:17.488Z,8.15
2022-09-07T19:17:20.380Z,8.48
2022-09-07T19:20:23.002Z,7.55
2022-09-07T19:23:25.701Z,8.17
2022-09-07T19:26:30.205Z,8.50
2022-09-07T19:29:33.157Z,8.30
2022-09-07T19:32:35.690Z,8.02
2022-09-07T19:35:38.527Z,8.65
2022-09-07T19:38:41.088Z,8.30
2022-09-07T19:41:45.238Z,7.43
2022-09-07T19:44:48.017Z,8.13
2022-09-07T19:47:50.738Z,7.57
2022-09-07T19:50:53.500Z,7.80
2022-09-07T19:53:56.225Z,7.67
2022-09-07T19:56:58.817Z,7.60
2022-09-07T20:00:01.692Z,7.85
2022-09-07T20:03:14.190Z,8.77
2022-09-07T20:06:18.292Z,8.18
2022-09-07T20:09:20.749Z,7.23
2022-09-07T20:12:23.475Z,7.87
2022-09-07T20:15:26.302Z,8.23
2022-09-07T20:18:29.036Z,9.95
2022-09-07T20:21:31.499Z,8.50
2022-09-07T20:24:35.230Z,8.97
2022-09-07T20:27:37.635Z,8.77
2022-09-07T20:30:44.077Z,9.30
2022-09-07T20:33:47.854Z,8.80
2022-09-07T20:36:50.966Z,8.82
2022-09-07T20:39:53.436Z,8.60
2022-09-07T20:42:56.225Z,9.17
2022-09-07T20:45:59.673Z,9.73
2022-09-07T20:49:02.396Z,9.35
2022-09-07T20:52:04.837Z,9.45
2022-09-07T20:55:07.993Z,9.40
2022-09-07T20:58:10.540Z,8.77
2022-09-07T21:01:15.205Z,9.25
2022-09-07T21:04:17.803Z,9.48
2022-09-07T21:07:20.485Z,9.32
2022-09-07T21:10:22.900Z,9.07
2022-09-07T21:13:25.591Z,10.60
2022-09-07T21:16:28.845Z,9.88
2022-09-07T21:19:31.596Z,10.35
2022-09-07T21:22:34.091Z,10.40
2022-09-07T21:25:44.039Z,10.60
2022-09-07T21:28:46.480Z,10.30
2022-09-07T21:31:49.653Z,9.93
2022-09-07T21:34:52.119Z,10.20
2022-09-07T21:37:54.811Z,9.68
2022-09-07T21:40:57.251Z,9.63
2022-09-07T21:44:01.943Z,10.33
2022-09-07T21:47:04.571Z,10.27
2022-09-07T21:50:07.774Z,10.50
2022-09-07T21:53:10.874Z,11.12
2022-09-07T21:56:14.373Z,10.00
2022-09-07T21:59:16.873Z,9.97
2022-09-07T22:02:19.673Z,9.95
2022-09-07T22:05:22.408Z,9.60
2022-09-07T22:08:24.815Z,10.65
2022-09-07T22:11:29.115Z,9.87
2022-09-07T22:14:31.612Z,9.83
2022-09-07T22:17:34.513Z,9.10
2022-09-07T22:20:36.959Z,9.32
2022-09-07T22:23:42.675Z,9.98
2022-09-07T22:26:46.397Z,9.00
2022-09-07T22:29:49.102Z,8.70
2022-09-07T22:32:51.858Z,8.57
2022-09-07T22:35:54.535Z,9.88
2022-09-07T22:38:59.297Z,9.40
2022-09-07T22:42:01.981Z,9.53
2022-09-07T22:45:05.885Z,9.20
2022-09-07T22:48:08.734Z,9.23
2022-09-07T22:51:11.714Z,9.23
2022-09-07T22:54:14.449Z,9.48
2022-09-07T22:57:16.928Z,9.70
2022-09-07T23:00:20.073Z,10.30
2022-09-07T23:03:22.539Z,9.30
2022-09-07T23:06:30.660Z,10.32
2022-09-07T23:09:33.156Z,11.10
2022-09-07T23:12:35.888Z,10.37
2022-09-07T23:15:38.806Z,10.27
2022-09-07T23:18:41.645Z,10.45
2022-09-07T23:21:44.119Z,10.40
2022-09-07T23:24:46.847Z,10.15
2022-09-07T23:27:49.281Z,11.03
2022-09-07T23:30:52.013Z,11.30
2022-09-07T23:33:55.666Z,11.15
2022-09-07T23:36:58.377Z,11.82
2022-09-07T23:40:00.855Z,12.37
2022-09-07T23:43:03.570Z,12.23
2022-09-07T23:46:06.129Z,12.33
2022-09-07T23:49:08.916Z,13.00
2022-09-07T23:52:11.309Z,12.85
2022-09-07T23:55:13.999Z,12.20
2022-09-07T23:58:16.570Z,13.60
